createdAt,value
2022-08-05T00:02:34.328Z,25.04
2022-08-05T00:06:04.960Z,25.00
2022-08-05T00:09:01.764Z,24.97
2022-08-05T00:12:05.317Z,24.93
2022-08-05T00:15:56.451Z,24.90
2022-08-05T00:18:39.049Z,24.89
2022-08-05T00:21:42.641Z,24.85
2022-08-05T00:24:46.922Z,24.81
2022-08-05T00:27:57.991Z,24.72
2022-08-05T00:31:02.741Z,24.65
2022-08-05T00:34:55.793Z,24.60
2022-08-05T00:37:51.018Z,24.55
2022-08-05T00:40:57.408Z,24.54
2022-08-05T00:44:00.395Z,24.47
2022-08-05T00:47:04.079Z,24.47
2022-08-05T00:50:09.698Z,24.41
2022-08-05T00:54:00.820Z,24.39
2022-08-05T00:56:36.794Z,24.37
2022-08-05T00:59:44.172Z,24.34
2022-08-05T01:02:47.509Z,24.32
2022-08-05T01:05:54.800Z,24.32
2022-08-05T01:08:57.854Z,24.32
2022-08-05T01:12:17.982Z,24.27
2022-08-05T01:15:36.241Z,24.27
2022-08-05T01:18:48.104Z,24.21
2022-08-05T01:22:28.090Z,24.20
2022-08-05T01:25:53.209Z,24.18
2022-08-05T01:29:04.312Z,24.14
2022-08-05T01:32:18.452Z,24.10
2022-08-05T01:35:51.940Z,24.08
2022-08-05T01:38:51.655Z,24.03
2022-08-05T01:41:56.885Z,24.00
2022-08-05T01:45:03.204Z,23.96
2022-08-05T01:48:10.225Z,23.94
2022-08-05T01:51:15.743Z,23.90
2022-08-05T01:54:23.642Z,23.86
2022-08-05T01:58:10.808Z,23.87
2022-08-05T02:00:58.955Z,23.85
2022-08-05T02:04:04.085Z,23.84
2022-08-05T02:07:07.009Z,23.78
2022-08-05T02:10:11.314Z,23.71
2022-08-05T02:13:25.765Z,23.71
2022-08-05T02:16:35.656Z,23.60
2022-08-05T02:19:47.665Z,23.50
2022-08-05T02:22:57.720Z,23.50
2022-08-05T02:26:03.986Z,23.48
2022-08-05T02:29:09.239Z,23.38
2022-08-05T02:32:31.440Z,23.18
2022-08-05T02:35:37.473Z,23.11
2022-08-05T02:38:43.247Z,23.14
2022-08-05T02:42:00.739Z,23.24
2022-08-05T02:45:05.520Z,23.29
2022-08-05T02:48:12.954Z,23.30
2022-08-05T02:51:18.370Z,22.99
2022-08-05T02:54:35.668Z,22.97
2022-08-05T02:58:11.718Z,22.89
2022-08-05T03:01:05.012Z,22.87
2022-08-05T03:04:14.305Z,22.89
2022-08-05T03:07:40.496Z,22.82
2022-08-05T03:10:43.865Z,22.69
2022-08-05T03:14:07.991Z,22.59
2022-08-05T03:17:11.059Z,22.37
2022-08-05T03:20:15.254Z,22.52
2022-08-05T03:23:18.371Z,22.13
2022-08-05T03:26:31.866Z,22.00
2022-08-05T03:29:45.473Z,21.79
2022-08-05T03:32:59.465Z,21.85
2022-08-05T03:36:03.718Z,21.89
2022-08-05T03:39:13.070Z,21.97
2022-08-05T03:42:23.135Z,21.95
2022-08-05T03:45:29.943Z,21.94
2022-08-05T03:48:52.823Z,21.91
2022-08-05T03:52:37.444Z,21.95
2022-08-05T03:56:09.532Z,21.98
2022-08-05T03:58:54.667Z,21.71
2022-08-05T04:01:59.709Z,21.43
2022-08-05T04:05:04.056Z,21.24
2022-08-05T04:08:29.700Z,20.90
2022-08-05T04:11:47.463Z,21.04
2022-08-05T04:14:54.014Z,21.13
2022-08-05T04:18:03.272Z,21.13
2022-08-05T04:21:10.908Z,21.21
2022-08-05T04:24:19.545Z,21.23
2022-08-05T04:27:33.036Z,21.30
2022-08-05T04:30:45.078Z,21.26
2022-08-05T04:34:18.207Z,21.22
2022-08-05T04:37:11.461Z,21.29
2022-08-05T04:40:19.519Z,21.36
2022-08-05T04:43:22.540Z,21.46
2022-08-05T04:46:28.809Z,21.55
2022-08-05T04:50:01.057Z,21.57
2022-08-05T04:52:54.334Z,21.60
2022-08-05T04:56:33.245Z,21.60
2022-08-05T04:59:33.570Z,21.61
2022-08-05T05:02:43.271Z,21.72
2022-08-05T05:06:35.842Z,21.65
2022-08-05T05:09:09.849Z,21.74
2022-08-05T05:12:18.062Z,22.09
2022-08-05T05:15:57.895Z,21.85
2022-08-05T05:19:09.052Z,21.82
2022-08-05T05:22:23.077Z,21.70
2022-08-05T05:25:32.965Z,21.73
2022-08-05T05:28:45.368Z,21.63
2022-08-05T05:31:48.248Z,21.78
2022-08-05T05:34:52.468Z,21.77
2022-08-05T05:38:00.088Z,21.93
2022-08-05T05:41:04.182Z,21.91
2022-08-05T05:44:35.938Z,21.96
2022-08-05T05:48:07.028Z,21.86
2022-08-05T05:50:58.981Z,21.79
2022-08-05T05:54:18.089Z,21.60
2022-08-05T05:57:22.629Z,21.60
2022-08-05T06:00:31.391Z,21.45
2022-08-05T06:03:53.649Z,21.39
2022-08-05T06:06:57.365Z,21.33
2022-08-05T06:10:09.728Z,21.49
2022-08-05T06:13:13.537Z,21.45
2022-08-05T06:16:29.970Z,21.55
2022-08-05T06:19:35.795Z,21.59
2022-08-05T06:22:41.358Z,21.67
2022-08-05T06:26:12.644Z,21.87
2022-08-05T06:29:43.007Z,21.91
2022-08-05T06:32:32.551Z,22.02
2022-08-05T06:36:07.184Z,21.95
2022-08-05T06:38:58.908Z,22.09
2022-08-05T06:42:04.105Z,22.29
2022-08-05T06:45:09.186Z,22.10
2022-08-05T06:48:52.871Z,22.29
2022-08-05T06:51:36.629Z,22.50
2022-08-05T06:54:43.714Z,22.22
2022-08-05T06:57:57.444Z,22.71
2022-08-05T07:01:07.702Z,22.69
2022-08-05T07:04:13.903Z,22.73
2022-08-05T07:07:17.177Z,22.80
2022-08-05T07:10:38.485Z,22.90
2022-08-05T07:13:59.913Z,22.81
2022-08-05T07:17:57.118Z,22.81
2022-08-05T07:20:33.358Z,22.62
2022-08-05T07:23:37.459Z,22.83
2022-08-05T07:26:52.932Z,22.97
2022-08-05T07:30:24.440Z,23.14
2022-08-05T07:33:35.268Z,23.23
2022-08-05T07:36:41.966Z,23.29
2022-08-05T07:40:08.397Z,23.26
2022-08-05T07:43:14.600Z,23.23
2022-08-05T07:46:25.541Z,23.18
2022-08-05T07:49:28.657Z,23.03
2022-08-05T07:52:32.796Z,23.13
2022-08-05T07:55:44.303Z,23.23
2022-08-05T07:58:59.370Z,23.27
2022-08-05T08:02:03.195Z,23.16
2022-08-05T08:05:07.029Z,23.32
2022-08-05T08:08:12.405Z,23.39
2022-08-05T08:11:15.906Z,23.62
2022-08-05T08:14:19.248Z,23.70
2022-08-05T08:17:22.651Z,23.77
2022-08-05T08:21:00.235Z,23.95
2022-08-05T08:24:02.841Z,24.09
2022-08-05T08:27:08.543Z,24.19
2022-08-05T08:30:28.479Z,24.22
2022-08-05T08:33:37.860Z,24.49
2022-08-05T08:36:48.810Z,24.20
2022-08-05T08:39:59.086Z,24.47
2022-08-05T08:43:20.940Z,24.44
2022-08-05T08:46:29.167Z,24.29
2022-08-05T08:50:23.196Z,24.62
2022-08-05T08:53:11.864Z,24.79
2022-08-05T08:56:17.418Z,25.01
2022-08-05T08:59:21.600Z,25.04
2022-08-05T09:02:30.446Z,24.92
2022-08-05T09:05:38.334Z,25.00
2022-08-05T09:08:41.975Z,25.24
2022-08-05T09:11:51.911Z,25.33
2022-08-05T09:15:06.411Z,25.45
2022-08-05T09:18:13.500Z,25.66
2022-08-05T09:21:20.610Z,25.66
2022-08-05T09:24:39.248Z,25.81
2022-08-05T09:28:04.245Z,25.71
2022-08-05T09:31:22.366Z,25.73
2022-08-05T09:34:47.797Z,25.84
2022-08-05T09:38:12.174Z,26.07
2022-08-05T09:41:16.098Z,26.05
2022-08-05T09:44:34.156Z,25.88
2022-08-05T09:47:55.197Z,26.05
2022-08-05T09:51:01.244Z,26.06
2022-08-05T09:54:06.876Z,26.32
2022-08-05T09:57:20.812Z,26.41
2022-08-05T10:00:30.586Z,26.51
2022-08-05T10:03:56.687Z,26.65
2022-08-05T10:06:59.094Z,26.76
2022-08-05T10:10:15.265Z,26.85
2022-08-05T10:13:31.670Z,26.94
2022-08-05T10:16:52.823Z,26.89
2022-08-05T10:20:03.718Z,26.91
2022-08-05T10:23:34.209Z,27.10
2022-08-05T10:26:37.770Z,27.28
2022-08-05T10:30:07.071Z,27.43
2022-08-05T10:33:18.675Z,27.60
2022-08-05T10:36:23.669Z,27.74
2022-08-05T10:40:03.420Z,27.57
2022-08-05T10:43:00.765Z,28.10
2022-08-05T10:46:06.353Z,28.10
2022-08-05T10:49:16.858Z,28.12
2022-08-05T10:52:47.041Z,28.08
2022-08-05T10:56:14.675Z,27.92
2022-08-05T11:00:03.523Z,27.89
2022-08-05T11:03:24.501Z,27.69
2022-08-05T11:06:31.277Z,27.71
2022-08-05T11:09:46.469Z,27.83
2022-08-05T11:12:50.538Z,28.03
2022-08-05T11:16:47.928Z,28.31
2022-08-05T11:20:10.111Z,28.30
2022-08-05T11:24:02.765Z,28.33
2022-08-05T11:27:45.796Z,28.41
2022-08-05T11:31:54.519Z,28.67
2022-08-05T11:34:51.144Z,28.72
2022-08-05T11:38:30.747Z,28.59
2022-08-05T11:41:56.430Z,28.81
2022-08-05T11:45:01.817Z,28.79
2022-08-05T11:48:09.612Z,28.65
2022-08-05T11:51:44.684Z,28.57
2022-08-05T11:54:40.628Z,28.58
2022-08-05T11:58:10.861Z,28.59
2022-08-05T12:01:12.321Z,28.65
2022-08-05T12:04:22.288Z,28.85
2022-08-05T12:08:07.899Z,29.16
2022-08-05T12:10:50.629Z,29.38
2022-08-05T12:13:58.569Z,29.33
2022-08-05T12:18:00.723Z,29.40
2022-08-05T12:20:33.520Z,29.21
2022-08-05T12:23:36.710Z,29.10
2022-08-05T12:26:48.481Z,29.13
2022-08-05T12:30:05.107Z,29.02
2022-08-05T12:33:27.622Z,28.92
2022-08-05T12:36:31.883Z,29.03
2022-08-05T12:39:38.550Z,29.31
2022-08-05T12:42:41.806Z,29.36
2022-08-05T12:45:56.557Z,29.20
2022-08-05T12:49:01.041Z,29.27
2022-08-05T12:52:24.011Z,29.43
2022-08-05T12:55:33.073Z,29.60
2022-08-05T12:58:53.844Z,29.71
2022-08-05T13:02:06.812Z,29.74
2022-08-05T13:05:12.728Z,29.76
2022-08-05T13:08:19.527Z,29.92
2022-08-05T13:11:25.565Z,29.85
2022-08-05T13:15:05.112Z,29.79
2022-08-05T13:18:10.612Z,29.65
2022-08-05T13:21:13.592Z,29.73
2022-08-05T13:24:27.809Z,30.04
2022-08-05T13:27:43.007Z,30.19
2022-08-05T13:30:45.803Z,30.26
2022-08-05T13:34:25.043Z,30.39
2022-08-05T13:37:16.259Z,30.69
2022-08-05T13:40:51.487Z,30.95
2022-08-05T13:43:55.461Z,31.23
2022-08-05T13:47:04.592Z,31.37
2022-08-05T13:50:16.678Z,31.15
2022-08-05T13:53:20.042Z,31.15
2022-08-05T13:56:22.893Z,31.32
2022-08-05T13:59:26.935Z,31.16
2022-08-05T14:02:31.313Z,30.90
2022-08-05T14:06:24.347Z,31.07
2022-08-05T14:08:59.567Z,31.03
2022-08-05T14:12:17.240Z,30.90
2022-08-05T14:16:09.044Z,30.94
2022-08-05T14:18:43.963Z,30.77
2022-08-05T14:22:08.737Z,30.67
2022-08-05T14:25:21.858Z,30.64
2022-08-05T14:28:26.861Z,30.72
2022-08-05T14:31:54.589Z,30.57
2022-08-05T14:34:53.004Z,30.40
2022-08-05T14:37:59.500Z,30.47
2022-08-05T14:41:06.788Z,30.34
2022-08-05T14:44:20.005Z,30.25
2022-08-05T14:48:04.270Z,30.34
2022-08-05T14:50:46.353Z,30.56
2022-08-05T14:54:26.152Z,30.59
2022-08-05T14:57:13.710Z,30.63
2022-08-05T15:00:16.845Z,30.69
2022-08-05T15:03:22.969Z,30.93
2022-08-05T15:06:27.888Z,30.72
2022-08-05T15:09:52.680Z,30.60
2022-08-05T15:13:03.777Z,30.22
2022-08-05T15:16:07.665Z,29.98
2022-08-05T15:19:23.832Z,29.94
2022-08-05T15:22:28.482Z,29.88
2022-08-05T15:25:41.137Z,29.93
2022-08-05T15:28:54.655Z,29.90
2022-08-05T15:31:57.453Z,29.79
2022-08-05T15:35:10.766Z,29.51
2022-08-05T15:38:35.528Z,29.34
2022-08-05T15:41:56.299Z,29.12
2022-08-05T15:45:01.874Z,29.01
2022-08-05T15:48:05.612Z,28.97
2022-08-05T15:51:09.900Z,29.02
2022-08-05T15:54:15.063Z,29.07
2022-08-05T15:57:19.830Z,29.13
2022-08-05T16:00:32.598Z,29.16
2022-08-05T16:03:48.482Z,29.34
2022-08-05T16:06:51.774Z,29.39
2022-08-05T16:09:55.284Z,29.19
2022-08-05T16:12:59.370Z,28.91
2022-08-05T16:16:02.162Z,28.91
2022-08-05T16:19:06.721Z,28.89
2022-08-05T16:22:13.273Z,28.99
2022-08-05T16:25:16.303Z,28.97
2022-08-05T16:28:20.377Z,29.06
2022-08-05T16:31:27.029Z,28.92
2022-08-05T16:34:50.912Z,28.83
2022-08-05T16:38:15.523Z,28.73
2022-08-05T16:41:29.762Z,28.60
2022-08-05T16:44:41.971Z,28.47
2022-08-05T16:47:55.575Z,28.41
2022-08-05T16:51:00.286Z,28.13
2022-08-05T16:54:16.060Z,27.98
2022-08-05T16:57:49.477Z,27.86
2022-08-05T17:00:49.516Z,27.57
2022-08-05T17:03:52.852Z,27.40
2022-08-05T17:07:00.497Z,26.86
2022-08-05T17:10:03.864Z,26.00
2022-08-05T17:13:16.686Z,25.22
2022-08-05T17:16:32.956Z,24.83
2022-08-05T17:19:36.725Z,24.28
2022-08-05T17:22:39.455Z,23.85
2022-08-05T17:25:42.901Z,23.27
2022-08-05T17:28:47.183Z,23.07
2022-08-05T17:31:58.544Z,22.79
2022-08-05T17:35:02.190Z,22.48
2022-08-05T17:41:22.948Z,22.38
2022-08-05T17:44:33.856Z,22.14
2022-08-05T17:47:39.789Z,22.02
2022-08-05T17:50:42.655Z,21.72
2022-08-05T17:53:45.944Z,21.48
2022-08-05T17:56:57.150Z,21.44
2022-08-05T18:00:05.442Z,21.07
2022-08-05T18:03:10.247Z,20.62
2022-08-05T18:06:15.133Z,20.49
2022-08-05T18:09:18.722Z,20.46
2022-08-05T18:12:24.271Z,20.19
2022-08-05T18:15:27.772Z,19.98
2022-08-05T18:18:39.848Z,19.94
2022-08-05T18:22:08.963Z,19.99
2022-08-05T18:25:06.315Z,19.95
2022-08-05T18:28:09.842Z,19.83
2022-08-05T18:31:12.709Z,19.76
2022-08-05T18:34:21.735Z,19.75
2022-08-05T18:37:33.504Z,19.92
2022-08-05T18:41:56.358Z,19.76
2022-08-05T18:44:05.498Z,20.04
2022-08-05T18:47:09.349Z,20.16
2022-08-05T18:50:45.069Z,20.11
2022-08-05T18:53:50.452Z,19.78
2022-08-05T18:56:53.425Z,19.74
2022-08-05T19:00:03.493Z,19.88
2022-08-05T19:03:06.965Z,19.74
2022-08-05T19:06:22.143Z,19.37
2022-08-05T19:09:40.112Z,19.62
2022-08-05T19:12:43.448Z,19.74
2022-08-05T19:15:59.109Z,19.53
2022-08-05T19:19:03.879Z,19.48
2022-08-05T19:22:09.008Z,19.59
2022-08-05T19:25:21.650Z,19.59
2022-08-05T19:28:33.856Z,19.70
2022-08-05T19:31:44.776Z,19.63
2022-08-05T19:34:54.685Z,19.42
2022-08-05T19:38:05.960Z,19.40
2022-08-05T19:41:09.713Z,19.39
2022-08-05T19:44:14.109Z,19.31
2022-08-05T19:47:17.536Z,19.31
2022-08-05T19:50:21.043Z,19.49
2022-08-05T19:54:04.243Z,19.48
2022-08-05T19:56:52.258Z,19.24
2022-08-05T20:00:02.462Z,18.98
2022-08-05T20:03:14.345Z,18.85
2022-08-05T20:06:23.386Z,18.89
2022-08-05T20:09:53.679Z,18.83
2022-08-05T20:12:56.248Z,18.97
2022-08-05T20:15:59.772Z,19.05
2022-08-05T20:19:03.162Z,18.96
2022-08-05T20:22:06.346Z,19.09
2022-08-05T20:25:13.810Z,18.83
2022-08-05T20:28:16.603Z,18.91
2022-08-05T20:31:21.534Z,18.79
2022-08-05T20:34:25.958Z,18.95
2022-08-05T20:38:06.507Z,18.81
2022-08-05T20:40:53.194Z,18.70
2022-08-05T20:44:06.048Z,18.62
2022-08-05T20:47:31.810Z,18.49
2022-08-05T20:50:37.744Z,18.51
2022-08-05T20:53:56.977Z,18.38
2022-08-05T20:57:01.291Z,18.28
2022-08-05T21:00:20.169Z,18.19
2022-08-05T21:03:34.541Z,17.98
2022-08-05T21:06:37.965Z,18.01
2022-08-05T21:09:53.390Z,17.91
2022-08-05T21:13:09.020Z,18.02
2022-08-05T21:16:14.159Z,18.17
2022-08-05T21:19:16.991Z,18.35
2022-08-05T21:22:23.903Z,18.45
2022-08-05T21:25:33.700Z,18.38
2022-08-05T21:28:40.119Z,18.27
2022-08-05T21:31:53.201Z,18.30
2022-08-05T21:35:08.776Z,18.17
2022-08-05T21:38:21.009Z,17.84
2022-08-05T21:41:23.822Z,17.71
2022-08-05T21:44:27.979Z,17.77
2022-08-05T21:47:55.823Z,17.61
2022-08-05T21:50:54.448Z,17.80
2022-08-05T21:53:59.608Z,17.76
2022-08-05T21:57:30.900Z,17.76
2022-08-05T22:00:31.266Z,17.71
2022-08-05T22:03:48.905Z,17.75
2022-08-05T22:06:57.002Z,17.52
2022-08-05T22:10:00.134Z,17.51
2022-08-05T22:14:04.976Z,17.40
2022-08-05T22:16:50.889Z,17.16
2022-08-05T22:19:57.174Z,16.96
2022-08-05T22:23:23.981Z,17.03
2022-08-05T22:26:49.645Z,16.83
2022-08-05T22:29:54.263Z,16.81
2022-08-05T22:32:58.485Z,16.82
2022-08-05T22:36:01.243Z,16.85
2022-08-05T22:39:09.471Z,16.60
2022-08-05T22:42:21.521Z,16.35
2022-08-05T22:45:30.656Z,16.25
2022-08-05T22:48:35.421Z,16.14
2022-08-05T22:52:05.196Z,16.09
2022-08-05T22:55:01.134Z,15.88
2022-08-05T22:58:04.230Z,16.04
2022-08-05T23:01:07.916Z,16.20
2022-08-05T23:04:12.264Z,16.29
2022-08-05T23:07:15.175Z,16.57
2022-08-05T23:10:19.843Z,16.62
2022-08-05T23:13:23.294Z,16.65
2022-08-05T23:16:40.266Z,16.44
2022-08-05T23:19:51.044Z,16.31
2022-08-05T23:22:59.168Z,16.36
2022-08-05T23:26:01.941Z,16.37
2022-08-05T23:29:05.847Z,16.57
2022-08-05T23:32:12.951Z,16.71
2022-08-05T23:35:17.954Z,16.55
2022-08-05T23:38:20.658Z,16.59
2022-08-05T23:41:23.581Z,16.63
2022-08-05T23:44:27.854Z,16.64
2022-08-05T23:47:34.582Z,16.60
2022-08-05T23:50:52.409Z,16.56
2022-08-05T23:53:55.147Z,16.47
2022-08-05T23:57:05.189Z,16.47
